Evergreen, Louisiana
Current Conditions -  °F | °C
As of 4:55 PM on Wednesday 26 Nov 2014 (Local Time) from KOPL Reporting Station
Clear Clear  
Wind Chill: 63°   Ceiling: Unl
Heat Index: 63°   Visibility: 10mi
Dew Point: 44°   Wind: 10mph
Humidity: 49%   Direction: 210°SSW
Pressure: 30.17"   Gusts: NA
Location:  30.95°N, 92.11°W
Report Text: KOPL 262255Z AUTO 21009KT 10SM CLR 17/07 A3017 RMK AO2 T01720065
Loading
Personal Weather Stations






























Interactive Weather Map New forecast layout! Learn more

10-Day Weather Forecast

Advertisements
Track Severe Weather on mobile